Time;durP1;ratioP1;P1;durP2;ratioP2;P2;SDS_P1;SDS_P2;PMS_P1;PMS_P2;Temp;Humidity;BMP_temperature;BMP_pressure;BME280_temperature;BME280_humidity;BME280_pressure;Samples;Min_cycle;Max_cycle;Signal;HPM_P1;HPM_P2
2021/11/30 00:01:51;;;;;;;17.77;9.93;;;;;;;1.73;77.93;96305.25;1671559;84;20989;-71
2021/11/30 00:04:18;;;;;;;17.23;9.38;;;;;;;1.76;77.81;96315.19;1670146;84;21055;-72
2021/11/30 00:06:47;;;;;;;16.30;8.88;;;;;;;1.83;77.90;96327.66;1698572;83;20979;-72
2021/11/30 00:12:09;;;;;;;18.25;9.85;;;;;;;1.92;77.67;96337.92;1696580;83;21025;-72
2021/11/30 00:14:37;;;;;;;18.48;10.23;;;;;;;1.94;77.82;96342.65;1691069;84;21094;-72
2021/11/30 00:17:10;;;;;;;15.70;9.25;;;;;;;1.95;78.93;96355.28;1691423;84;21277;-72
2021/11/30 00:19:37;;;;;;;13.35;8.05;;;;;;;1.95;78.94;96353.51;1691105;84;21504;-72
2021/11/30 00:22:06;;;;;;;14.03;9.08;;;;;;;1.94;77.84;96343.95;1691838;83;21500;-72
2021/11/30 00:24:33;;;;;;;16.50;9.75;;;;;;;1.95;78.18;96344.36;1697934;83;21039;-72
2021/11/30 00:27:01;;;;;;;17.37;9.65;;;;;;;1.93;79.82;96343.98;1695636;83;21500;-70
2021/11/30 00:29:29;;;;;;;13.88;8.85;;;;;;;1.97;78.26;96342.59;1668142;85;21036;-71
2021/11/30 00:31:56;;;;;;;15.63;9.08;;;;;;;2.00;78.20;96357.34;1691208;83;21076;-71
2021/11/30 00:34:22;;;;;;;17.37;9.73;;;;;;;2.03;77.95;96366.41;1637943;86;21541;-73
2021/11/30 00:36:50;;;;;;;13.83;8.53;;;;;;;2.10;77.91;96365.39;1647912;85;21316;-73
2021/11/30 00:39:17;;;;;;;15.45;8.68;;;;;;;2.13;77.72;96363.59;1632194;87;21024;-72
2021/11/30 00:41:48;;;;;;;12.25;8.08;;;;;;;2.14;77.85;96361.38;1681165;85;21103;-72
2021/11/30 00:44:14;;;;;;;12.90;7.80;;;;;;;2.18;77.83;96366.52;1681586;85;20947;-72
2021/11/30 00:46:44;;;;;;;12.75;8.40;;;;;;;2.20;77.56;96366.49;1681933;84;21427;-72
2021/11/30 00:49:11;;;;;;;12.63;7.87;;;;;;;2.21;77.52;96344.22;1682114;85;21013;-71
2021/11/30 00:51:42;;;;;;;11.75;7.72;;;;;;;2.23;77.68;96338.53;1681790;85;21032;-74
2021/11/30 00:54:12;;;;;;;12.80;8.18;;;;;;;2.24;77.69;96336.75;1681533;85;21046;-73
2021/11/30 00:56:43;;;;;;;12.40;7.40;;;;;;;2.24;77.39;96339.36;1681931;85;20959;-71
2021/11/30 00:59:11;;;;;;;13.03;7.72;;;;;;;2.25;77.75;96351.56;1681891;85;21030;-71
2021/11/30 01:01:39;;;;;;;10.15;6.97;;;;;;;2.27;77.42;96361.95;1682002;85;21013;-71
2021/11/30 01:04:11;;;;;;;9.98;6.60;;;;;;;2.24;77.55;96383.37;1680862;85;21041;-71
2021/11/30 01:06:40;;;;;;;11.05;6.87;;;;;;;2.24;77.22;96402.10;1681940;85;20998;-71
2021/11/30 01:09:08;;;;;;;10.53;7.17;;;;;;;2.23;77.23;96412.15;1682063;85;21411;-71
2021/11/30 01:11:37;;;;;;;12.10;6.75;;;;;;;2.20;77.10;96418.30;1681887;85;21080;-71
2021/11/30 01:14:06;;;;;;;10.50;7.05;;;;;;;2.18;77.31;96421.41;1681954;85;21006;-72
2021/11/30 01:16:34;;;;;;;13.75;7.33;;;;;;;2.21;77.40;96435.70;1682146;85;21443;-72
2021/11/30 01:19:03;;;;;;;10.45;6.37;;;;;;;2.21;77.41;96449.23;1682120;85;21402;-72
2021/11/30 01:21:32;;;;;;;12.25;6.83;;;;;;;2.21;77.45;96463.61;1681927;85;21060;-72
2021/11/30 01:23:58;;;;;;;12.98;6.50;;;;;;;2.24;77.18;96465.70;1661406;86;21036;-72
2021/11/30 01:26:26;;;;;;;10.55;6.05;;;;;;;2.26;77.16;96474.83;1660964;86;21024;-72
2021/11/30 01:28:52;;;;;;;9.95;6.22;;;;;;;2.24;76.86;96470.94;1654629;86;21005;-72
2021/11/30 01:31:19;;;;;;;10.53;6.78;;;;;;;2.18;76.97;96480.66;1680731;84;21063;-72
2021/11/30 01:33:46;;;;;;;10.13;6.60;;;;;;;2.18;77.04;96478.92;1696674;85;21483;-72
2021/11/30 01:36:13;;;;;;;10.93;6.55;;;;;;;2.21;77.32;96476.22;1696896;85;21068;-72
2021/11/30 01:38:40;;;;;;;10.32;6.70;;;;;;;2.24;77.38;96478.78;1696609;85;21023;-72
2021/11/30 01:41:07;;;;;;;10.88;6.55;;;;;;;2.26;77.40;96475.27;1696581;85;20989;-72
2021/11/30 01:43:42;;;;;;;9.40;6.03;;;;;;;2.29;77.78;96478.70;1696906;84;21040;-72
2021/11/30 01:46:13;;;;;;;8.80;6.25;;;;;;;2.32;77.90;96478.61;1696051;83;21032;-72
2021/11/30 01:51:27;;;;;;;12.05;6.75;;;;;;;2.38;78.02;96475.86;1696437;84;21035;-72
2021/11/30 01:53:55;;;;;;;11.78;7.30;;;;;;;2.46;78.10;96482.70;1696809;85;21283;-72
2021/11/30 01:56:23;;;;;;;9.83;6.55;;;;;;;2.49;78.16;96474.80;1696830;85;21033;-72
2021/11/30 01:58:51;;;;;;;9.60;6.22;;;;;;;2.52;78.27;96469.95;1696717;84;20996;-72
2021/11/30 02:01:19;;;;;;;10.32;6.65;;;;;;;2.51;77.96;96462.53;1696741;84;21028;-72
2021/11/30 02:03:47;;;;;;;11.68;6.62;;;;;;;2.48;77.90;96466.52;1696811;85;21028;-72
2021/11/30 02:06:15;;;;;;;10.40;6.62;;;;;;;2.45;77.68;96464.83;1696803;85;21444;-72
2021/11/30 02:08:42;;;;;;;11.20;6.83;;;;;;;2.44;77.32;96467.47;1696519;85;21406;-72
2021/11/30 02:11:12;;;;;;;10.23;6.75;;;;;;;2.36;76.45;96465.90;1696815;85;20989;-72
2021/11/30 02:13:45;;;;;;;10.80;6.35;;;;;;;2.30;76.79;96471.27;1696585;84;20994;-72
2021/11/30 02:16:16;;;;;;;11.25;6.75;;;;;;;2.27;76.33;96478.29;1696761;84;20974;-73
2021/11/30 02:18:44;;;;;;;11.25;7.00;;;;;;;2.21;76.35;96474.07;1696714;84;20980;-73
2021/11/30 02:21:12;;;;;;;11.30;6.35;;;;;;;2.17;76.47;96473.28;1696809;85;21017;-74
2021/11/30 02:23:47;;;;;;;12.07;7.15;;;;;;;2.14;76.32;96482.91;1696711;84;21424;-73
2021/11/30 02:26:14;;;;;;;12.73;7.33;;;;;;;2.11;76.26;96491.67;1696593;84;21033;-71
2021/11/30 02:28:48;;;;;;;12.43;6.75;;;;;;;2.08;76.18;96489.98;1696856;85;20958;-72
2021/11/30 02:31:19;;;;;;;10.03;6.17;;;;;;;2.00;75.68;96494.95;1694959;84;21061;-72
2021/11/30 02:33:48;;;;;;;10.50;6.72;;;;;;;1.92;74.85;96501.64;1691345;85;21055;-72
2021/11/30 02:36:30;;;;;;;12.07;6.33;;;;;;;1.92;75.79;96499.03;1637035;87;21041;-72
2021/11/30 02:38:56;;;;;;;10.40;6.45;;;;;;;1.87;75.31;96486.04;1689614;85;21031;-72
2021/11/30 02:41:24;;;;;;;12.40;6.90;;;;;;;1.87;75.40;96503.02;1691266;85;21060;-72
2021/11/30 02:43:51;;;;;;;11.03;6.20;;;;;;;1.85;75.42;96498.28;1691128;85;21059;-72
2021/11/30 02:46:37;;;;;;;12.60;6.80;;;;;;;1.81;74.88;96486.16;1691127;85;21368;-72
2021/11/30 02:49:10;;;;;;;11.55;6.67;;;;;;;1.77;75.27;96479.27;1691184;85;21052;-71
2021/11/30 02:51:41;;;;;;;10.60;6.65;;;;;;;1.76;75.58;96477.13;1685186;83;21086;-72
2021/11/30 02:54:12;;;;;;;13.35;6.60;;;;;;;1.76;75.57;96484.09;1691352;85;21024;-72
2021/11/30 02:56:43;;;;;;;11.97;6.85;;;;;;;1.76;75.58;96482.34;1691315;84;20998;-72
2021/11/30 02:59:11;;;;;;;12.23;7.42;;;;;;;1.74;75.72;96491.11;1636930;87;21001;-72
2021/11/30 03:01:46;;;;;;;12.23;7.55;;;;;;;1.70;75.58;96502.91;1650844;87;21472;-71
2021/11/30 03:04:14;;;;;;;10.78;6.55;;;;;;;1.69;75.64;96499.88;1650868;86;20998;-72
2021/11/30 03:06:42;;;;;;;11.15;6.40;;;;;;;1.67;75.75;96501.64;1654763;86;21036;-72
2021/11/30 03:09:10;;;;;;;12.88;7.40;;;;;;;1.63;75.61;96499.12;1660228;86;21409;-73
2021/11/30 03:11:38;;;;;;;11.12;6.70;;;;;;;1.61;75.69;96506.14;1662237;86;21009;-72
2021/11/30 03:14:05;;;;;;;12.88;6.85;;;;;;;1.48;76.34;96500.25;1662628;86;21450;-72
2021/11/30 03:16:34;;;;;;;12.40;7.58;;;;;;;1.51;75.98;96513.27;1659523;86;21086;-73
2021/11/30 03:19:02;;;;;;;13.15;7.78;;;;;;;1.52;76.14;96511.06;1656303;86;20996;-72
2021/11/30 03:21:28;;;;;;;13.13;7.12;;;;;;;1.49;76.41;96506.75;1662499;86;21080;-72
2021/11/30 03:23:55;;;;;;;12.78;7.25;;;;;;;1.44;76.74;96500.32;1662488;86;21016;-73
2021/11/30 03:26:22;;;;;;;13.10;7.35;;;;;;;1.42;77.15;96499.47;1660175;86;21428;-72
2021/11/30 03:28:48;;;;;;;13.50;7.92;;;;;;;1.41;77.86;96496.91;1654918;86;21045;-72
2021/11/30 03:34:10;;;;;;;15.08;8.45;;;;;;;1.30;79.53;96513.59;1662492;86;21013;-72
2021/11/30 03:36:39;;;;;;;19.17;9.25;;;;;;;1.30;78.87;96507.52;1665338;85;21040;-72
2021/11/30 03:39:10;;;;;;;16.87;9.05;;;;;;;1.28;79.57;96515.80;1688778;85;21419;-73
2021/11/30 03:41:38;;;;;;;16.52;8.85;;;;;;;1.22;79.71;96518.09;1637083;87;21029;-71
2021/11/30 03:44:07;;;;;;;14.35;8.55;;;;;;;1.15;80.22;96521.67;1691471;85;21017;-71
2021/11/30 03:46:36;;;;;;;14.18;8.20;;;;;;;1.09;80.06;96521.34;1690944;85;21993;-71
2021/11/30 03:49:06;;;;;;;15.05;8.95;;;;;;;1.08;80.98;96518.75;1691440;84;21013;-72
2021/11/30 03:51:33;;;;;;;16.62;9.23;;;;;;;1.13;80.58;96528.21;1690627;85;21430;-72
2021/11/30 03:54:00;;;;;;;16.17;8.35;;;;;;;1.16;80.68;96522.12;1691000;85;21032;-71
2021/11/30 03:56:27;;;;;;;12.30;7.40;;;;;;;1.16;80.93;96516.43;1691365;85;20966;-72
2021/11/30 03:58:58;;;;;;;13.32;7.92;;;;;;;1.21;80.24;96505.06;1691386;85;20970;-71
2021/11/30 04:01:25;;;;;;;18.87;8.73;;;;;;;1.18;80.54;96500.33;1637099;88;21128;-72
2021/11/30 04:03:51;;;;;;;12.53;8.05;;;;;;;1.22;80.50;96505.47;1691429;85;21005;-72
2021/11/30 04:06:17;;;;;;;14.65;8.30;;;;;;;1.22;80.28;96508.09;1636596;87;21022;-72
2021/11/30 04:08:45;;;;;;;14.47;7.50;;;;;;;1.20;80.63;96508.56;1649987;87;21026;-72
2021/11/30 04:11:12;;;;;;;13.03;8.50;;;;;;;1.11;80.77;96508.25;1643174;87;21049;-72
2021/11/30 04:13:39;;;;;;;12.90;7.67;;;;;;;1.07;80.61;96500.92;1688278;85;20947;-72
2021/11/30 04:16:06;;;;;;;14.60;8.15;;;;;;;1.06;80.36;96513.55;1637107;87;21037;-72
2021/11/30 04:18:33;;;;;;;14.00;7.75;;;;;;;1.00;80.19;96515.80;1691091;85;21032;-71
2021/11/30 04:21:00;;;;;;;16.00;8.38;;;;;;;0.96;80.05;96521.98;1691402;84;21057;-72
2021/11/30 04:23:27;;;;;;;15.23;8.90;;;;;;;0.96;79.94;96527.20;1691176;85;20974;-72
2021/11/30 04:25:54;;;;;;;13.75;8.15;;;;;;;0.96;79.73;96533.72;1691350;85;21026;-72
2021/11/30 04:28:21;;;;;;;14.23;7.95;;;;;;;0.92;79.59;96530.27;1691196;84;21049;-71
2021/11/30 04:30:48;;;;;;;12.85;7.72;;;;;;;0.87;80.26;96536.00;1691141;85;21481;-72
2021/11/30 04:33:17;;;;;;;14.00;8.50;;;;;;;0.87;79.74;96549.50;1673318;85;21072;-72
2021/11/30 04:35:43;;;;;;;13.43;8.33;;;;;;;0.82;79.98;96547.41;1668649;85;21504;-72
2021/11/30 04:38:10;;;;;;;15.40;8.93;;;;;;;0.84;80.08;96545.63;1668251;86;20987;-72
2021/11/30 04:40:38;;;;;;;17.20;8.80;;;;;;;0.84;79.84;96558.23;1668396;85;21024;-72
2021/11/30 04:43:08;;;;;;;16.23;9.25;;;;;;;0.86;79.71;96556.88;1668138;86;21461;-72
2021/11/30 04:45:51;;;;;;;14.75;7.97;;;;;;;0.86;79.61;96553.84;1668423;84;21068;-72
2021/11/30 04:48:02;;;;;;;16.25;8.35;;;;;;;0.89;79.89;96555.12;1665670;85;20997;-72
2021/11/30 04:50:41;;;;;;;16.40;8.70;;;;;;;0.89;79.69;96561.64;1659915;86;21012;-72
2021/11/30 04:53:05;;;;;;;15.70;7.85;;;;;;;0.89;79.51;96550.33;1667620;86;21004;-72
2021/11/30 04:55:32;;;;;;;13.38;7.72;;;;;;;0.90;79.84;96562.05;1667703;86;21002;-72
2021/11/30 04:58:03;;;;;;;12.93;7.35;;;;;;;0.87;80.21;96562.08;1668104;86;20988;-73
2021/11/30 05:00:32;;;;;;;14.90;8.50;;;;;;;0.80;81.16;96561.77;1667431;85;21008;-73
2021/11/30 05:02:58;;;;;;;13.53;8.05;;;;;;;0.79;80.85;96571.78;1668106;86;21044;-73
2021/11/30 05:05:27;;;;;;;14.03;7.85;;;;;;;0.76;80.74;96568.77;1667948;86;21068;-72
2021/11/30 05:07:53;;;;;;;13.53;7.78;;;;;;;0.75;80.75;96577.92;1668200;86;21027;-72
2021/11/30 05:10:19;;;;;;;13.13;7.85;;;;;;;0.69;81.25;96579.28;1667961;86;21469;-72
2021/11/30 05:12:48;;;;;;;12.88;7.35;;;;;;;0.63;81.03;96569.81;1667938;86;21067;-73
2021/11/30 05:15:17;;;;;;;13.75;7.97;;;;;;;0.59;81.59;96578.13;1668142;86;21464;-72
2021/11/30 05:17:44;;;;;;;12.90;7.78;;;;;;;0.55;81.57;96571.64;1667922;85;21052;-72
2021/11/30 05:20:12;;;;;;;16.82;8.18;;;;;;;0.56;80.94;96576.84;1667889;86;21606;-73
2021/11/30 05:22:39;;;;;;;14.00;8.40;;;;;;;0.53;81.54;96574.27;1668092;86;20981;-72
2021/11/30 05:25:07;;;;;;;13.45;7.70;;;;;;;0.51;81.79;96572.13;1668020;86;21016;-73
2021/11/30 05:27:44;;;;;;;13.40;8.40;;;;;;;0.49;82.12;96567.36;1668031;86;21067;-73
2021/11/30 05:30:08;;;;;;;13.00;8.00;;;;;;;0.47;82.19;96583.47;1665209;86;21041;-73
2021/11/30 05:32:34;;;;;;;13.00;7.97;;;;;;;0.47;81.98;96583.05;1662227;85;21072;-73
2021/11/30 05:35:01;;;;;;;14.28;8.30;;;;;;;0.47;81.61;96588.26;1651038;87;21045;-73
2021/11/30 05:37:27;;;;;;;11.90;6.90;;;;;;;0.47;81.64;96591.30;1651083;87;21421;-73
2021/11/30 05:39:53;;;;;;;13.55;8.25;;;;;;;0.40;82.30;96608.75;1650732;87;21040;-72
2021/11/30 05:42:20;;;;;;;14.83;7.92;;;;;;;0.45;81.85;96606.95;1651079;87;20993;-72
2021/11/30 05:44:46;;;;;;;13.43;7.70;;;;;;;0.47;81.61;96609.11;1650945;87;21056;-73
2021/11/30 05:47:12;;;;;;;17.57;7.75;;;;;;;0.46;81.35;96614.34;1650845;87;21021;-72
2021/11/30 05:49:40;;;;;;;14.85;7.97;;;;;;;0.51;80.84;96610.78;1650768;87;21089;-72
2021/11/30 05:52:07;;;;;;;12.40;7.37;;;;;;;0.49;80.88;96612.55;1657067;87;21366;-74
2021/11/30 05:54:34;;;;;;;13.30;8.03;;;;;;;0.49;80.53;96616.46;1657816;86;21025;-73
2021/11/30 05:57:01;;;;;;;13.60;7.58;;;;;;;0.52;80.33;96619.05;1658042;86;21452;-73
2021/11/30 05:59:34;;;;;;;13.10;7.47;;;;;;;0.52;80.37;96614.26;1657761;86;20973;-73
2021/11/30 06:01:55;;;;;;;14.87;7.83;;;;;;;0.51;80.55;96618.59;1656420;86;21533;-73
2021/11/30 06:04:24;;;;;;;13.72;8.08;;;;;;;0.50;80.37;96622.55;1658163;86;21004;-73
2021/11/30 06:06:51;;;;;;;14.07;7.75;;;;;;;0.53;80.25;96612.06;1650925;85;21020;-73
2021/11/30 06:09:17;;;;;;;13.58;8.20;;;;;;;0.57;80.16;96623.31;1657546;86;20981;-73
2021/11/30 06:11:45;;;;;;;12.55;7.28;;;;;;;0.60;79.96;96630.69;1657552;86;21020;-73
2021/11/30 06:14:13;;;;;;;13.85;8.10;;;;;;;0.57;80.02;96634.63;1651182;85;21502;-74
2021/11/30 06:16:39;;;;;;;13.53;8.30;;;;;;;0.56;80.06;96638.11;1657520;86;21039;-73
2021/11/30 06:19:06;;;;;;;13.28;7.55;;;;;;;0.56;80.07;96645.94;1631359;87;21084;-73
2021/11/30 06:21:33;;;;;;;12.88;7.37;;;;;;;0.59;79.87;96646.34;1630808;88;20992;-73
2021/11/30 06:24:00;;;;;;;12.35;7.92;;;;;;;0.58;79.21;96648.53;1631078;87;20989;-73
2021/11/30 06:26:26;;;;;;;15.80;7.58;;;;;;;0.57;78.50;96650.27;1631988;87;21067;-73
2021/11/30 06:28:53;;;;;;;11.80;6.85;;;;;;;0.57;78.34;96657.20;1657393;87;20992;-73
2021/11/30 06:31:19;;;;;;;11.48;6.92;;;;;;;0.61;77.43;96657.17;1651948;86;21029;-73
2021/11/30 06:33:45;;;;;;;11.97;6.65;;;;;;;0.64;77.86;96662.36;1688214;84;21057;-73
2021/11/30 06:36:12;;;;;;;11.28;6.85;;;;;;;0.65;77.26;96670.60;1675063;86;21418;-73
2021/11/30 06:38:38;;;;;;;11.40;7.20;;;;;;;0.72;77.63;96676.61;1708543;84;20961;-73
2021/11/30 06:41:05;;;;;;;12.80;5.65;;;;;;;0.72;76.90;96681.83;1709515;84;21020;-73
2021/11/30 06:43:31;;;;;;;11.12;6.25;;;;;;;0.68;75.85;96694.91;1709256;84;20997;-73
2021/11/30 06:45:58;;;;;;;11.48;7.20;;;;;;;0.69;75.29;96697.50;1709481;84;21035;-73
2021/11/30 06:48:24;;;;;;;11.97;6.65;;;;;;;0.73;75.55;96695.71;1709318;84;21007;-73
2021/11/30 06:50:53;;;;;;;13.05;7.10;;;;;;;0.73;74.59;96700.50;1709201;84;21086;-73
2021/11/30 06:53:21;;;;;;;13.35;7.20;;;;;;;0.82;75.86;96705.20;1709361;84;21082;-74
2021/11/30 06:55:47;;;;;;;12.03;6.60;;;;;;;0.81;75.02;96699.53;1709380;84;21043;-73
2021/11/30 06:58:14;;;;;;;13.08;6.65;;;;;;;0.78;73.98;96701.73;1709270;83;21008;-74
2021/11/30 07:00:42;;;;;;;11.30;6.70;;;;;;;0.81;73.78;96703.02;1679553;84;20995;-74
2021/11/30 07:03:08;;;;;;;11.65;7.08;;;;;;;0.86;73.87;96709.47;1709207;84;21066;-74
2021/11/30 07:05:40;;;;;;;12.00;7.10;;;;;;;0.85;73.80;96699.92;1708685;84;20965;-73
2021/11/30 07:10:50;;;;;;;9.65;5.78;;;;;;;0.82;72.55;96711.72;1709183;84;21027;-73
2021/11/30 07:13:29;;;;;;;10.65;6.17;;;;;;;0.84;72.45;96713.86;1709253;84;21061;-73
2021/11/30 07:16:01;;;;;;;12.40;6.92;;;;;;;0.90;72.82;96713.78;1709245;84;21013;-73
2021/11/30 07:18:31;;;;;;;13.78;6.72;;;;;;;0.89;72.97;96715.97;1707412;84;20981;-73
2021/11/30 07:20:59;;;;;;;11.53;6.30;;;;;;;0.91;72.26;96711.16;1680965;85;21075;-74
2021/11/30 07:23:26;;;;;;;8.88;5.30;;;;;;;0.92;71.37;96712.88;1683473;84;21110;-74
2021/11/30 07:25:53;;;;;;;12.55;6.35;;;;;;;0.94;71.28;96710.25;1709000;84;21430;-74
2021/11/30 07:28:28;;;;;;;10.00;5.53;;;;;;;1.00;72.05;96708.02;1709139;84;20964;-74
2021/11/30 07:30:52;;;;;;;10.18;6.10;;;;;;;1.02;70.03;96708.42;1709352;83;21027;-73
2021/11/30 07:33:19;;;;;;;9.63;5.62;;;;;;;1.12;71.83;96707.85;1700434;84;21085;-74
2021/11/30 07:35:45;;;;;;;10.00;5.80;;;;;;;1.14;71.46;96707.41;1688609;84;21464;-73
2021/11/30 07:38:11;;;;;;;9.13;5.50;;;;;;;1.18;70.23;96710.84;1688272;85;20997;-73
2021/11/30 07:40:38;;;;;;;13.60;5.92;;;;;;;1.21;70.82;96709.93;1688339;85;20964;-73
2021/11/30 07:43:04;;;;;;;9.35;5.67;;;;;;;1.24;71.37;96719.04;1688578;85;21044;-73
2021/11/30 07:45:31;;;;;;;9.63;5.62;;;;;;;1.27;70.35;96710.72;1688362;85;21461;-73
2021/11/30 07:47:57;;;;;;;7.78;5.22;;;;;;;1.30;70.37;96722.86;1688348;85;20958;-73
2021/11/30 07:50:24;;;;;;;11.00;5.60;;;;;;;1.27;70.47;96725.50;1688748;85;21012;-73
2021/11/30 07:52:50;;;;;;;9.25;5.00;;;;;;;1.33;70.15;96723.27;1688538;85;21470;-73
2021/11/30 07:55:18;;;;;;;7.92;5.03;;;;;;;1.24;68.45;96737.31;1688292;85;21004;-74
2021/11/30 07:57:46;;;;;;;6.62;4.22;;;;;;;1.16;68.38;96726.51;1688775;85;21057;-73
2021/11/30 08:00:17;;;;;;;7.58;4.42;;;;;;;1.16;69.06;96723.90;1688328;85;20982;-73
2021/11/30 08:02:44;;;;;;;9.68;3.85;;;;;;;1.11;68.34;96727.01;1688732;85;20992;-74
2021/11/30 08:05:12;;;;;;;13.90;5.08;;;;;;;1.05;68.21;96730.55;1689106;84;21016;-73
2021/11/30 08:07:40;;;;;;;13.95;5.22;;;;;;;1.04;68.44;96734.50;1688533;85;20977;-73
2021/11/30 08:10:13;;;;;;;16.23;5.25;;;;;;;1.09;69.09;96737.92;1689517;84;21024;-72
2021/11/30 08:12:39;;;;;;;9.63;4.70;;;;;;;1.15;69.20;96740.88;1688118;85;21033;-73
2021/11/30 08:15:07;;;;;;;8.60;4.30;;;;;;;1.22;69.05;96742.97;1688516;85;21083;-72
2021/11/30 08:17:33;;;;;;;7.78;4.80;;;;;;;1.24;69.16;96743.83;1688620;85;21006;-72
2021/11/30 08:20:01;;;;;;;7.33;4.25;;;;;;;1.29;69.39;96750.70;1688677;85;20939;-73
2021/11/30 08:22:27;;;;;;;8.18;4.50;;;;;;;1.35;68.68;96752.38;1688526;85;21020;-73
2021/11/30 08:24:54;;;;;;;9.25;4.22;;;;;;;1.36;69.07;96754.10;1688891;85;21020;-73
2021/11/30 08:27:20;;;;;;;7.80;4.50;;;;;;;1.35;68.92;96754.99;1688547;85;20962;-73
2021/11/30 08:29:50;;;;;;;8.05;3.98;;;;;;;1.38;68.99;96752.35;1688787;85;21414;-72
2021/11/30 08:32:18;;;;;;;8.73;4.05;;;;;;;1.40;68.90;96754.92;1688891;85;21131;-73
2021/11/30 08:34:45;;;;;;;5.90;3.40;;;;;;;1.39;67.39;96759.73;1706732;84;21031;-72
2021/11/30 08:37:12;;;;;;;7.05;4.28;;;;;;;1.43;66.84;96758.38;1709436;84;21078;-72
2021/11/30 08:39:39;;;;;;;5.90;3.55;;;;;;;1.43;66.46;96757.08;1709440;84;21064;-73
2021/11/30 08:42:09;;;;;;;6.20;3.22;;;;;;;1.51;66.79;96760.01;1709363;84;21019;-72
2021/11/30 08:44:37;;;;;;;7.10;3.67;;;;;;;1.51;65.03;96758.27;1709541;84;21039;-72
2021/11/30 08:47:06;;;;;;;7.58;3.90;;;;;;;1.52;65.46;96761.30;1709454;84;20984;-73
2021/11/30 08:49:33;;;;;;;5.67;3.20;;;;;;;1.52;65.43;96747.36;1709435;84;21405;-72
2021/11/30 08:52:00;;;;;;;7.80;3.98;;;;;;;1.51;64.11;96756.09;1709439;84;21035;-72
2021/11/30 08:54:30;;;;;;;6.83;3.92;;;;;;;1.49;64.33;96757.41;1709394;84;20985;-72
2021/11/30 08:56:59;;;;;;;7.87;4.17;;;;;;;1.50;64.28;96753.06;1709255;84;20971;-71
2021/11/30 08:59:26;;;;;;;6.95;4.45;;;;;;;1.51;64.43;96758.27;1709458;84;21019;-72
2021/11/30 09:01:53;;;;;;;6.95;4.25;;;;;;;1.51;65.42;96748.25;1709614;84;21002;-72
2021/11/30 09:04:20;;;;;;;7.55;4.50;;;;;;;1.55;64.92;96744.72;1709229;84;20969;-72
2021/11/30 09:06:47;;;;;;;5.10;3.40;;;;;;;1.52;65.27;96742.14;1709382;84;21039;-72
2021/11/30 09:09:15;;;;;;;6.67;4.00;;;;;;;1.43;65.25;96747.06;1709290;84;21018;-72
2021/11/30 09:11:42;;;;;;;6.40;3.87;;;;;;;1.50;65.74;96743.47;1709402;84;21011;-71
2021/11/30 09:14:10;;;;;;;7.35;3.90;;;;;;;1.58;65.98;96742.08;1709376;84;21369;-71
2021/11/30 09:16:37;;;;;;;7.25;4.10;;;;;;;1.63;64.48;96752.45;1709091;84;21485;-71
2021/11/30 09:19:05;;;;;;;14.13;7.20;;;;;;;1.64;65.20;96753.73;1709508;84;20993;-72
2021/11/30 09:21:32;;;;;;;19.52;8.70;;;;;;;1.68;65.12;96741.06;1709389;84;21005;-72
2021/11/30 09:23:58;;;;;;;7.00;3.98;;;;;;;1.70;65.45;96748.42;1709093;84;21483;-72
2021/11/30 09:26:25;;;;;;;8.15;3.90;;;;;;;1.70;64.21;96741.89;1709268;84;21019;-72
2021/11/30 09:28:53;;;;;;;6.45;3.92;;;;;;;1.71;64.15;96746.22;1705436;84;21016;-72
2021/11/30 09:31:20;;;;;;;7.78;4.53;;;;;;;1.70;64.29;96742.32;1709113;84;20999;-74
2021/11/30 09:33:47;;;;;;;7.12;4.33;;;;;;;1.72;64.90;96743.18;1698695;84;21008;-71
2021/11/30 09:36:15;;;;;;;7.20;4.15;;;;;;;1.65;64.61;96735.88;1679489;85;21001;-72
2021/11/30 09:38:43;;;;;;;7.67;4.17;;;;;;;1.67;64.53;96737.16;1678855;85;21111;-70
2021/11/30 09:41:12;;;;;;;7.40;4.50;;;;;;;1.64;65.87;96746.34;1679667;84;21016;-71
2021/11/30 09:43:40;;;;;;;8.65;4.67;;;;;;;1.67;67.05;96740.62;1686287;85;20980;-70
2021/11/30 09:46:08;;;;;;;8.25;4.70;;;;;;;1.69;68.09;96740.60;1683922;85;21458;-70
2021/11/30 09:48:36;;;;;;;8.38;4.42;;;;;;;1.75;67.07;96737.92;1685876;85;21088;-71
2021/11/30 09:51:05;;;;;;;9.75;4.95;;;;;;;1.83;66.50;96737.80;1687042;84;20945;-72
2021/11/30 09:53:33;;;;;;;10.90;5.53;;;;;;;1.94;66.84;96736.31;1685650;85;21517;-70
2021/11/30 09:56:03;;;;;;;8.20;4.50;;;;;;;2.06;66.61;96729.60;1676309;85;21017;-72
2021/11/30 09:58:30;;;;;;;6.80;3.65;;;;;;;2.17;65.22;96733.79;1679050;83;21017;-73
2021/11/30 10:00:59;;;;;;;7.97;4.67;;;;;;;2.08;64.44;96730.43;1679177;85;21025;-73
2021/11/30 10:03:26;;;;;;;7.70;4.05;;;;;;;2.23;64.65;96726.71;1667521;85;22212;-72
2021/11/30 10:05:55;;;;;;;9.13;4.55;;;;;;;2.12;64.48;96722.12;1675776;84;21394;-71
2021/11/30 10:08:34;;;;;;;7.67;4.50;;;;;;;2.26;65.44;96728.84;1679302;85;21032;-71
2021/11/30 10:11:04;;;;;;;9.30;4.60;;;;;;;2.29;64.69;96724.88;1679838;85;21040;-73
2021/11/30 10:13:33;;;;;;;9.20;4.85;;;;;;;2.30;64.97;96726.17;1679420;85;21001;-71
2021/11/30 10:16:05;;;;;;;7.35;4.15;;;;;;;2.30;64.97;96723.55;1679706;85;21005;-73
2021/11/30 10:18:40;;;;;;;7.40;4.83;;;;;;;2.42;65.13;96723.79;1679638;84;20990;-72
2021/11/30 10:21:19;;;;;;;5.62;3.72;;;;;;;2.46;64.93;96721.97;1679730;85;21024;-72
2021/11/30 10:23:59;;;;;;;7.30;4.17;;;;;;;2.53;64.97;96727.50;1678914;85;21010;-73
2021/11/30 10:26:31;;;;;;;8.30;5.15;;;;;;;2.56;64.54;96732.69;1676524;85;21020;-72
2021/11/30 10:29:04;;;;;;;8.05;4.87;;;;;;;2.47;64.62;96725.00;1677258;85;21458;-75
2021/11/30 10:31:36;;;;;;;8.08;4.45;;;;;;;2.54;65.06;96726.63;1679103;84;21040;-72
2021/11/30 10:34:16;;;;;;;7.85;4.35;;;;;;;2.50;64.95;96733.64;1689181;84;21059;-72
2021/11/30 10:36:56;;;;;;;7.90;4.17;;;;;;;2.46;65.45;96729.36;1708332;84;21027;-71
2021/11/30 10:39:33;;;;;;;7.75;4.67;;;;;;;2.34;66.07;96737.00;1704847;83;20996;-70
2021/11/30 10:42:25;;;;;;;9.53;5.22;;;;;;;2.16;67.14;96728.99;1708771;84;21011;-70
2021/11/30 10:44:57;;;;;;;8.83;5.25;;;;;;;2.14;67.83;96729.91;1707989;84;21079;-70
2021/11/30 10:47:27;;;;;;;8.40;5.30;;;;;;;2.00;68.04;96733.63;1709018;84;21401;-70
2021/11/30 10:50:08;;;;;;;9.35;5.40;;;;;;;1.94;69.22;96733.70;1708902;84;21047;-70
2021/11/30 10:52:35;;;;;;;8.10;5.35;;;;;;;1.83;69.58;96724.28;1708048;84;20995;-71
2021/11/30 10:55:16;;;;;;;10.23;5.47;;;;;;;1.80;69.80;96723.05;1708701;84;21075;-70
2021/11/30 10:57:46;;;;;;;8.55;5.12;;;;;;;1.70;70.36;96731.45;1708634;84;21770;-72
2021/11/30 11:00:26;;;;;;;7.97;4.90;;;;;;;1.62;71.40;96735.91;1708512;84;21047;-69
2021/11/30 11:03:02;;;;;;;10.23;5.60;;;;;;;1.54;71.41;96739.93;1707916;83;21510;-70
2021/11/30 11:05:34;;;;;;;9.43;5.80;;;;;;;1.42;72.13;96738.81;1708661;84;21025;-71
2021/11/30 11:08:10;;;;;;;8.33;5.25;;;;;;;1.39;72.48;96726.66;1708667;84;20997;-72
2021/11/30 11:10:42;;;;;;;9.83;4.95;;;;;;;1.33;72.39;96735.89;1708651;84;20993;-72
2021/11/30 11:13:27;;;;;;;7.55;4.97;;;;;;;1.33;72.37;96739.80;1707497;84;21127;-72
2021/11/30 11:15:58;;;;;;;8.75;5.17;;;;;;;1.30;72.50;96732.84;1708569;84;20962;-71
2021/11/30 11:18:29;;;;;;;7.87;5.30;;;;;;;1.33;72.89;96731.97;1708851;82;20995;-70
2021/11/30 11:21:33;;;;;;;7.75;4.53;;;;;;;1.42;73.08;96723.15;1707057;84;20979;-69
2021/11/30 11:24:25;;;;;;;7.22;4.28;;;;;;;1.53;72.07;96728.23;1690335;84;20995;-71
2021/11/30 11:26:55;;;;;;;7.35;4.00;;;;;;;1.46;71.15;96726.14;1707186;84;21019;-70
2021/11/30 11:29:29;;;;;;;5.10;3.00;;;;;;;1.42;70.99;96723.98;1707300;84;20996;-70
2021/11/30 11:32:08;;;;;;;5.72;3.08;;;;;;;1.41;70.44;96726.64;1706827;84;21568;-70
2021/11/30 11:34:37;;;;;;;5.47;2.80;;;;;;;1.40;70.20;96721.86;1697915;84;21036;-70
2021/11/30 11:37:11;;;;;;;5.08;3.17;;;;;;;1.45;70.31;96721.34;1688038;85;20990;-70
2021/11/30 11:39:39;;;;;;;4.33;3.27;;;;;;;1.54;69.95;96723.42;1660140;85;21004;-72
2021/11/30 11:42:11;;;;;;;7.17;3.80;;;;;;;1.59;69.47;96713.77;1644059;86;21030;-71
2021/11/30 11:44:39;;;;;;;5.70;3.10;;;;;;;1.68;70.06;96714.06;1644168;87;21117;-72
2021/11/30 11:47:11;;;;;;;4.92;3.55;;;;;;;1.82;69.52;96703.40;1684673;85;21048;-71
2021/11/30 11:49:45;;;;;;;6.62;4.08;;;;;;;1.97;69.82;96701.00;1687735;85;21348;-72
2021/11/30 11:52:24;;;;;;;;;;;;;;;2.13;69.58;96699.00;1643154;85;21066;-71
2021/11/30 11:55:15;;;;;;;5.12;3.27;;;;;;;2.58;68.23;96696.05;1628698;88;20384;-74
2021/11/30 11:58:02;;;;;;;3.30;2.10;;;;;;;3.21;67.72;96689.13;1656546;87;21016;-73